createdAt,value
2023-01-11T00:01:37.645Z,100313.25
2023-01-11T00:04:07.197Z,100309.44
2023-01-11T00:06:35.169Z,100297.03
2023-01-11T00:09:03.249Z,100308.03
2023-01-11T00:11:33.850Z,100318.59
2023-01-11T00:14:01.967Z,100298.69
2023-01-11T00:16:30.290Z,100308.59
2023-01-11T00:18:58.323Z,100309.44
2023-01-11T00:21:28.033Z,100297.31
2023-01-11T00:23:56.099Z,100297.31
2023-01-11T00:26:26.493Z,100321.91
2023-01-11T00:28:54.766Z,100321.06
2023-01-11T00:31:33.117Z,100328.53
2023-01-11T00:34:01.441Z,100315.28
2023-01-11T00:36:30.966Z,100332.38
2023-01-11T00:38:59.112Z,100316.28
2023-01-11T00:41:44.110Z,100326.69
2023-01-11T00:44:30.176Z,100324.91
2023-01-11T00:47:16.578Z,100326.75
2023-01-11T00:49:44.897Z,100338.47
2023-01-11T00:52:14.425Z,100342.72
2023-01-11T00:54:43.679Z,100342.41
2023-01-11T00:57:11.889Z,100340.72
2023-01-11T00:59:40.742Z,100356.34
2023-01-11T01:02:10.417Z,100365.09
2023-01-11T01:04:39.343Z,100352.06
2023-01-11T01:07:08.814Z,100354.31
2023-01-11T01:09:39.076Z,100351.75
2023-01-11T01:12:09.483Z,100370.50
2023-01-11T01:14:36.809Z,100363.69
2023-01-11T01:17:08.117Z,100357.66
2023-01-11T01:19:37.910Z,100365.94
2023-01-11T01:22:09.266Z,100380.06
2023-01-11T01:24:39.215Z,100373.31
2023-01-11T01:27:07.299Z,100363.69
2023-01-11T01:29:35.330Z,100368.66
2023-01-11T01:32:03.376Z,100371.81
2023-01-11T01:34:31.728Z,100380.44
2023-01-11T01:36:59.719Z,100393.88
2023-01-11T01:39:28.076Z,100395.00
2023-01-11T01:41:57.615Z,100400.78
2023-01-11T01:44:58.224Z,100411.44
2023-01-11T01:47:30.984Z,100419.03
2023-01-11T01:50:00.290Z,100426.53
2023-01-11T01:52:29.412Z,100416.22
2023-01-11T01:55:03.181Z,100427.13
2023-01-11T01:57:35.805Z,100426.13
2023-01-11T02:00:07.808Z,100415.38
2023-01-11T02:02:38.313Z,100421.16
2023-01-11T02:05:08.466Z,100424.00
2023-01-11T02:07:40.715Z,100421.00
2023-01-11T02:10:11.202Z,100449.66
2023-01-11T02:12:43.307Z,100464.84
2023-01-11T02:15:12.968Z,100445.50
2023-01-11T02:17:41.385Z,100449.84
2023-01-11T02:20:33.299Z,100453.06
2023-01-11T02:23:44.818Z,100449.00
2023-01-11T02:26:40.190Z,100449.59
2023-01-11T02:29:17.466Z,100453.91
2023-01-11T02:31:52.635Z,100461.63
2023-01-11T02:34:33.431Z,100457.94
2023-01-11T02:37:12.824Z,100450.63
2023-01-11T02:39:53.111Z,100453.28
2023-01-11T02:42:44.892Z,100459.84
2023-01-11T02:45:22.323Z,100468.41
2023-01-11T02:47:55.370Z,100466.94
2023-01-11T02:50:30.244Z,100471.50
2023-01-11T02:53:01.774Z,100460.72
2023-01-11T02:55:36.018Z,100482.41
2023-01-11T02:58:07.317Z,100462.81
2023-01-11T03:00:39.166Z,100467.31
2023-01-11T03:03:10.324Z,100456.41
2023-01-11T03:05:45.182Z,100447.31
2023-01-11T03:08:31.647Z,100456.47
2023-01-11T03:11:06.448Z,100450.94
2023-01-11T03:13:46.752Z,100462.94
2023-01-11T03:16:24.390Z,100469.16
2023-01-11T03:18:59.215Z,100468.47
2023-01-11T03:21:39.809Z,100463.69
2023-01-11T03:24:16.793Z,100466.63
2023-01-11T03:26:54.856Z,100483.16
2023-01-11T03:29:30.533Z,100473.28
2023-01-11T03:32:11.923Z,100501.63
2023-01-11T03:34:46.822Z,100508.25
2023-01-11T03:37:21.851Z,100499.50
2023-01-11T03:39:57.014Z,100507.69
2023-01-11T03:42:28.832Z,100500.06
2023-01-11T03:44:58.936Z,100499.50
2023-01-11T03:47:32.973Z,100515.41
2023-01-11T03:50:06.004Z,100507.69
2023-01-11T03:52:38.546Z,100509.47
2023-01-11T03:55:10.290Z,100504.84
2023-01-11T03:57:43.447Z,100503.16
2023-01-11T04:00:17.821Z,100522.34
2023-01-11T04:02:47.237Z,100518.09
2023-01-11T04:05:15.241Z,100511.34
2023-01-11T04:07:43.576Z,100517.00
2023-01-11T04:10:12.731Z,100520.66
2023-01-11T04:12:40.618Z,100509.25
2023-01-11T04:15:10.479Z,100522.22
2023-01-11T04:17:38.468Z,100524.47
2023-01-11T04:20:10.373Z,100547.75
2023-01-11T04:22:38.419Z,100527.72
2023-01-11T04:25:09.076Z,100540.97
2023-01-11T04:27:37.254Z,100515.44
2023-01-11T04:30:06.314Z,100527.84
2023-01-11T04:32:34.281Z,100564.84
2023-01-11T04:35:02.660Z,100553.81
2023-01-11T04:37:32.357Z,100546.59
2023-01-11T04:40:00.407Z,100548.03
2023-01-11T04:42:27.416Z,100540.97
2023-01-11T04:44:55.427Z,100546.59
2023-01-11T04:47:25.198Z,100538.44
2023-01-11T04:49:53.371Z,100557.03
2023-01-11T04:52:21.990Z,100546.91
2023-01-11T04:54:52.577Z,100551.44
2023-01-11T04:57:20.590Z,100541.81
2023-01-11T04:59:48.823Z,100561.00
2023-01-11T05:02:17.244Z,100551.84
2023-01-11T05:04:45.308Z,100563.13
2023-01-11T05:07:13.404Z,100569.19
2023-01-11T05:09:41.519Z,100566.38
2023-01-11T05:12:10.925Z,100568.06
2023-01-11T05:14:38.893Z,100593.75
2023-01-11T05:17:06.807Z,100561.31
2023-01-11T05:19:34.766Z,100555.06
2023-01-11T05:22:02.718Z,100563.53
2023-01-11T05:24:30.767Z,100566.09
2023-01-11T05:26:58.895Z,100558.31
2023-01-11T05:29:28.822Z,100574.25
2023-01-11T05:31:57.095Z,100565.50
2023-01-11T05:34:25.107Z,100573.97
2023-01-11T05:36:53.210Z,100585.94
2023-01-11T05:39:23.080Z,100575.94
2023-01-11T05:41:51.094Z,100576.22
2023-01-11T05:44:37.390Z,100572.53
2023-01-11T05:47:06.736Z,100572.84
2023-01-11T05:49:34.648Z,100580.03
2023-01-11T05:52:02.660Z,100581.59
2023-01-11T05:54:30.642Z,100590.31
2023-01-11T05:56:59.022Z,100581.75
2023-01-11T05:59:27.002Z,100576.50
2023-01-11T06:01:55.032Z,100583.28
2023-01-11T06:04:24.568Z,100590.31
2023-01-11T06:06:52.796Z,100582.03
2023-01-11T06:09:20.843Z,100582.59
2023-01-11T06:11:50.631Z,100573.69
2023-01-11T06:14:18.791Z,100590.03
2023-01-11T06:16:47.133Z,100587.34
2023-01-11T06:19:15.217Z,100598.34
2023-01-11T06:21:45.046Z,100601.88
2023-01-11T06:24:13.136Z,100605.53
2023-01-11T06:26:41.101Z,100591.16
2023-01-11T06:29:09.202Z,100603.81
2023-01-11T06:31:37.309Z,100608.03
2023-01-11T06:34:05.325Z,100611.72
2023-01-11T06:36:33.259Z,100627.19
2023-01-11T06:39:03.779Z,100600.81
2023-01-11T06:41:32.139Z,100621.97
2023-01-11T06:44:00.136Z,100614.91
2023-01-11T06:46:29.154Z,100613.38
2023-01-11T06:48:57.489Z,100624.63
2023-01-11T06:51:25.503Z,100609.56
2023-01-11T06:53:53.435Z,100616.06
2023-01-11T06:56:23.681Z,100614.47
2023-01-11T06:58:52.654Z,100613.78
2023-01-11T07:01:20.920Z,100624.94
2023-01-11T07:03:49.232Z,100620.72
2023-01-11T07:06:17.212Z,100622.13
2023-01-11T07:08:45.263Z,100624.69
2023-01-11T07:11:13.860Z,100639.41
2023-01-11T07:13:43.424Z,100631.66
2023-01-11T07:16:11.669Z,100633.78
2023-01-11T07:18:39.737Z,100649.03
2023-01-11T07:21:08.001Z,100622.47
2023-01-11T07:23:36.136Z,100638.13
2023-01-11T07:26:04.274Z,100632.06
2023-01-11T07:28:32.280Z,100635.16
2023-01-11T07:31:01.897Z,100633.47
2023-01-11T07:33:29.935Z,100623.31
2023-01-11T07:36:00.832Z,100642.19
2023-01-11T07:38:29.876Z,100630.19
2023-01-11T07:40:57.965Z,100636.69
2023-01-11T07:43:24.918Z,100659.09
2023-01-11T07:45:54.338Z,100640.22
2023-01-11T07:48:27.056Z,100631.34
2023-01-11T07:50:56.124Z,100641.63
2023-01-11T07:53:26.731Z,100639.66
2023-01-11T07:55:56.476Z,100663.63
2023-01-11T07:58:24.950Z,100643.63
2023-01-11T08:00:53.079Z,100657.28
2023-01-11T08:03:21.354Z,100659.25
2023-01-11T08:05:52.812Z,100646.72
2023-01-11T08:08:21.131Z,100651.47
2023-01-11T08:11:10.276Z,100652.91
2023-01-11T08:13:54.949Z,100642.19
2023-01-11T08:16:23.010Z,100650.22
2023-01-11T08:18:51.255Z,100656.88
2023-01-11T08:21:21.407Z,100643.06
2023-01-11T08:23:49.485Z,100639.69
2023-01-11T08:26:18.255Z,100645.75
2023-01-11T08:28:46.636Z,100653.78
2023-01-11T08:31:15.212Z,100646.47
2023-01-11T08:33:43.394Z,100648.84
2023-01-11T08:36:13.489Z,100654.66
2023-01-11T08:38:43.109Z,100650.16
2023-01-11T08:41:11.839Z,100651.28
2023-01-11T08:43:39.872Z,100656.09
2023-01-11T08:46:08.287Z,100645.13
2023-01-11T08:48:36.928Z,100636.69
2023-01-11T08:51:05.047Z,100640.91
2023-01-11T08:53:33.094Z,100642.72
2023-01-11T08:56:02.641Z,100653.03
2023-01-11T08:58:30.679Z,100628.22
2023-01-11T09:00:59.322Z,100644.56
2023-01-11T09:03:28.709Z,100651.50
2023-01-11T09:06:00.049Z,100635.25
2023-01-11T09:08:29.128Z,100642.31
2023-01-11T09:10:59.919Z,100631.56
2023-01-11T09:13:29.998Z,100644.00
2023-01-11T09:15:59.458Z,100618.56
2023-01-11T09:18:27.575Z,100630.72
2023-01-11T09:20:56.234Z,100656.13
2023-01-11T09:23:24.574Z,100657.28
2023-01-11T09:25:56.407Z,100665.34
2023-01-11T09:28:24.448Z,100656.97
2023-01-11T09:30:55.948Z,100655.97
2023-01-11T09:33:24.159Z,100623.91
2023-01-11T09:35:53.209Z,100628.03
2023-01-11T09:38:21.399Z,100663.03
2023-01-11T09:41:00.506Z,100655.97
2023-01-11T09:43:31.437Z,100636.63
2023-01-11T09:46:08.977Z,100637.03
2023-01-11T09:48:43.605Z,100639.13
2023-01-11T09:51:15.900Z,100635.59
2023-01-11T09:53:49.679Z,100631.78
2023-01-11T09:56:25.123Z,100643.50
2023-01-11T09:59:09.652Z,100674.88
2023-01-11T10:01:46.542Z,100634.78
2023-01-11T10:04:33.118Z,100653.16
2023-01-11T10:07:19.917Z,100657.81
2023-01-11T10:18:30.651Z,100706.84
2023-01-11T10:19:33.510Z,100717.03
2023-01-11T10:21:58.254Z,100689.84
2023-01-11T10:24:30.288Z,100682.59
2023-01-11T10:27:06.689Z,100690.97
2023-01-11T10:29:51.687Z,100705.19
2023-01-11T10:32:34.795Z,100704.91
2023-01-11T10:35:41.356Z,100694.22
2023-01-11T10:38:41.098Z,100697.69
2023-01-11T10:41:26.439Z,100700.81
2023-01-11T10:44:05.303Z,100682.41
2023-01-11T10:46:39.764Z,100688.69
2023-01-11T10:49:26.956Z,100689.53
2023-01-11T10:52:00.364Z,100693.28
2023-01-11T10:54:35.141Z,100682.88
2023-01-11T10:57:29.162Z,100700.63
2023-01-11T11:00:18.575Z,100695.66
2023-01-11T11:06:17.547Z,100674.69
2023-01-11T11:08:52.278Z,100658.63
2023-01-11T11:11:23.933Z,100644.28
2023-01-11T11:13:58.910Z,100613.03
2023-01-11T11:16:42.218Z,100631.00
2023-01-11T11:19:13.491Z,100607.91
2023-01-11T11:21:43.868Z,100624.50
2023-01-11T11:24:22.491Z,100616.03
2023-01-11T11:26:59.452Z,100599.19
2023-01-11T11:29:30.805Z,100586.56
2023-01-11T11:32:03.858Z,100591.75
2023-01-11T11:34:32.521Z,100606.47
2023-01-11T11:37:02.724Z,100601.91
2023-01-11T11:39:36.862Z,100597.88
2023-01-11T11:42:08.874Z,100576.78
2023-01-11T11:44:36.974Z,100586.97
2023-01-11T11:47:06.985Z,100582.19
2023-01-11T11:49:37.057Z,100568.63
2023-01-11T11:52:08.483Z,100576.00
2023-01-11T11:54:43.419Z,100565.97
2023-01-11T11:57:28.327Z,100594.88
2023-01-11T12:00:04.543Z,100568.78
2023-01-11T12:02:35.690Z,100562.25
2023-01-11T12:05:27.268Z,100547.56
2023-01-11T12:08:03.738Z,100564.88
2023-01-11T12:10:36.973Z,100569.69
2023-01-11T12:13:05.526Z,100558.44
2023-01-11T12:15:40.551Z,100534.38
2023-01-11T12:18:25.225Z,100540.31
2023-01-11T12:20:53.725Z,100552.44
2023-01-11T12:23:24.824Z,100539.47
2023-01-11T12:26:26.451Z,100502.88
2023-01-11T12:30:02.491Z,100466.59
2023-01-11T12:32:58.273Z,100494.44
2023-01-11T12:35:59.216Z,100458.13
2023-01-11T12:39:05.536Z,100513.75
2023-01-11T12:41:59.455Z,100531.41
2023-01-11T12:44:46.840Z,100531.69
2023-01-11T12:47:59.220Z,100522.84
2023-01-11T12:51:14.751Z,100478.84
2023-01-11T12:54:05.052Z,100443.28
2023-01-11T12:56:52.783Z,100452.66
2023-01-11T12:59:41.663Z,100405.47
2023-01-11T13:02:28.495Z,100491.28
2023-01-11T13:05:14.998Z,100499.47
2023-01-11T13:08:22.782Z,100552.81
2023-01-11T13:11:03.033Z,100578.94
2023-01-11T13:13:46.491Z,100570.31
2023-01-11T13:16:19.096Z,100500.63
2023-01-11T13:19:27.787Z,100536.22
2023-01-11T13:22:30.719Z,100516.91
2023-01-11T13:25:06.686Z,100581.66
2023-01-11T13:30:42.990Z,100546.56
2023-01-11T13:33:18.627Z,100505.03
2023-01-11T13:35:52.634Z,100563.31
2023-01-11T13:38:35.566Z,100581.72
2023-01-11T13:41:14.974Z,100570.69
2023-01-11T13:43:48.601Z,100624.47
2023-01-11T13:46:26.369Z,100530.69
2023-01-11T13:49:01.892Z,100529.69
2023-01-11T13:51:38.290Z,100573.44
2023-01-11T13:54:14.171Z,100554.97
2023-01-11T13:56:44.529Z,100530.94
2023-01-11T13:59:18.296Z,100538.16
2023-01-11T14:01:55.613Z,100525.09
2023-01-11T14:04:31.854Z,100502.88
2023-01-11T14:07:11.608Z,100495.44
2023-01-11T14:10:21.398Z,100495.19
2023-01-11T14:13:06.115Z,100499.63
2023-01-11T14:15:47.839Z,100501.13
2023-01-11T14:18:30.802Z,100499.56
2023-01-11T14:21:25.109Z,100493.50
2023-01-11T14:23:55.012Z,100487.41
2023-01-11T14:26:41.977Z,100507.56
2023-01-11T14:29:28.721Z,100503.47
2023-01-11T14:32:17.781Z,100506.47
2023-01-11T14:35:05.239Z,100491.84
2023-01-11T14:37:58.499Z,100503.84
2023-01-11T14:41:08.139Z,100530.38
2023-01-11T14:44:11.807Z,100511.63
2023-01-11T14:47:07.267Z,100558.38
2023-01-11T14:50:05.085Z,100563.16
2023-01-11T14:52:40.842Z,100512.03
2023-01-11T14:55:17.586Z,100522.38
2023-01-11T14:58:00.475Z,100490.78
2023-01-11T15:01:20.979Z,100474.72
2023-01-11T15:03:57.333Z,100507.81
2023-01-11T15:06:25.815Z,100537.88
2023-01-11T15:08:56.942Z,100560.63
2023-01-11T15:11:36.913Z,100513.66
2023-01-11T15:14:25.202Z,100501.97
2023-01-11T15:17:13.647Z,100492.38
2023-01-11T15:19:44.667Z,100523.06
2023-01-11T15:22:29.221Z,100526.53
2023-01-11T15:25:22.901Z,100565.66
2023-01-11T15:27:51.721Z,100547.94
2023-01-11T15:30:39.984Z,100592.19
2023-01-11T15:33:32.439Z,100549.75
2023-01-11T15:36:06.822Z,100560.97
2023-01-11T15:38:38.756Z,100552.69
2023-01-11T15:41:33.355Z,100545.38
2023-01-11T15:44:19.607Z,100565.53
2023-01-11T15:47:16.705Z,100555.84
2023-01-11T15:50:18.829Z,100574.72
2023-01-11T15:53:18.647Z,100572.38
2023-01-11T15:56:18.923Z,100560.78
2023-01-11T16:02:51.744Z,100579.31
2023-01-11T16:05:25.050Z,100578.06
2023-01-11T16:08:02.642Z,100566.38
2023-01-11T16:11:04.295Z,100564.94
2023-01-11T16:13:57.203Z,100601.06
2023-01-11T16:19:21.884Z,100573.44
2023-01-11T16:21:56.082Z,100586.72
2023-01-11T16:24:39.395Z,100578.69
2023-01-11T16:27:57.632Z,100587.56
2023-01-11T16:30:28.436Z,100576.97
2023-01-11T16:33:22.850Z,100587.28
2023-01-11T16:35:51.003Z,100604.78
2023-01-11T16:38:22.477Z,100598.84
2023-01-11T16:40:54.249Z,100596.03
2023-01-11T16:43:26.559Z,100592.34
2023-01-11T16:45:55.670Z,100572.59
2023-01-11T16:48:26.384Z,100569.34
2023-01-11T16:51:03.723Z,100579.63
2023-01-11T16:53:33.808Z,100596.44
2023-01-11T16:56:05.653Z,100584.13
2023-01-11T16:58:35.362Z,100588.09
2023-01-11T17:01:05.898Z,100599.78
2023-01-11T17:03:37.156Z,100586.09
2023-01-11T17:06:26.867Z,100596.00
2023-01-11T17:08:57.096Z,100593.56
2023-01-11T17:11:30.107Z,100601.47
2023-01-11T17:14:22.311Z,100575.34
2023-01-11T17:16:52.996Z,100553.44
2023-01-11T17:19:25.082Z,100593.13
2023-01-11T17:21:54.928Z,100591.31
2023-01-11T17:24:26.217Z,100591.72
2023-01-11T17:26:57.700Z,100610.34
2023-01-11T17:29:30.539Z,100585.78
2023-01-11T17:32:00.980Z,100583.81
2023-01-11T17:34:32.852Z,100583.09
2023-01-11T17:37:02.685Z,100552.69
2023-01-11T17:39:34.356Z,100551.28
2023-01-11T17:42:23.355Z,100557.53
2023-01-11T17:45:11.112Z,100600.72
2023-01-11T17:47:40.407Z,100566.66
2023-01-11T17:50:21.952Z,100564.00
2023-01-11T17:52:57.359Z,100593.91
2023-01-11T17:55:29.303Z,100576.97
2023-01-11T17:58:19.252Z,100606.25
2023-01-11T18:01:10.825Z,100578.03
2023-01-11T18:03:43.198Z,100597.84
2023-01-11T18:06:15.550Z,100575.66
2023-01-11T18:08:49.025Z,100576.25
2023-01-11T18:11:24.507Z,100569.91
2023-01-11T18:13:54.416Z,100609.44
2023-01-11T18:16:23.892Z,100589.25
2023-01-11T18:19:05.415Z,100610.84
2023-01-11T18:21:51.978Z,100579.53
2023-01-11T18:24:35.326Z,100605.63
2023-01-11T18:27:18.974Z,100598.00
2023-01-11T18:29:49.825Z,100567.06
2023-01-11T18:32:18.958Z,100586.00
2023-01-11T18:34:50.168Z,100566.78
2023-01-11T18:37:20.455Z,100592.63
2023-01-11T18:39:48.589Z,100599.38
2023-01-11T18:42:19.664Z,100600.66
2023-01-11T18:44:49.594Z,100587.81
2023-01-11T18:47:20.083Z,100595.84
2023-01-11T18:49:48.632Z,100625.50
2023-01-11T18:52:17.160Z,100582.41
2023-01-11T18:54:46.938Z,100585.94
2023-01-11T18:57:14.918Z,100587.75
2023-01-11T18:59:43.038Z,100583.25
2023-01-11T19:02:24.589Z,100591.53
2023-01-11T19:04:54.309Z,100572.22
2023-01-11T19:07:23.337Z,100563.22
2023-01-11T19:09:54.926Z,100554.63
2023-01-11T19:12:23.139Z,100563.81
2023-01-11T19:14:51.348Z,100540.69
2023-01-11T19:17:19.697Z,100556.91
2023-01-11T19:19:47.582Z,100524.03
2023-01-11T19:22:15.954Z,100508.66
2023-01-11T19:24:43.950Z,100507.38
2023-01-11T19:27:14.200Z,100562.28
2023-01-11T19:29:42.452Z,100540.41
2023-01-11T19:32:10.989Z,100555.22
2023-01-11T19:34:39.905Z,100540.69
2023-01-11T19:37:08.212Z,100556.63
2023-01-11T19:39:36.713Z,100548.84
2023-01-11T19:42:04.697Z,100549.16
2023-01-11T19:44:35.448Z,100550.66
2023-01-11T19:47:11.300Z,100560.69
2023-01-11T19:49:41.104Z,100550.50
2023-01-11T19:52:13.163Z,100554.44
2023-01-11T19:54:42.980Z,100533.50
2023-01-11T19:57:11.593Z,100494.25
2023-01-11T19:59:41.309Z,100521.19
2023-01-11T20:02:11.109Z,100544.63
2023-01-11T20:04:38.998Z,100534.88
2023-01-11T20:07:07.280Z,100524.91
2023-01-11T20:09:37.616Z,100494.56
2023-01-11T20:12:05.945Z,100504.28
2023-01-11T20:14:34.105Z,100515.19
2023-01-11T20:17:03.778Z,100485.38
2023-01-11T20:19:31.873Z,100477.53
2023-01-11T20:21:59.818Z,100482.91
2023-01-11T20:24:30.112Z,100442.34
2023-01-11T20:26:59.788Z,100471.16
2023-01-11T20:29:27.882Z,100448.09
2023-01-11T20:31:58.204Z,100460.53
2023-01-11T20:34:32.495Z,100444.94
2023-01-11T20:37:00.453Z,100419.78
2023-01-11T20:39:28.542Z,100391.69
2023-01-11T20:41:56.795Z,100400.09
2023-01-11T20:44:28.092Z,100387.75
2023-01-11T20:46:57.291Z,100396.00
2023-01-11T20:49:27.713Z,100378.34
2023-01-11T20:51:57.625Z,100400.03
2023-01-11T20:54:25.738Z,100422.88
2023-01-11T20:56:54.125Z,100379.84
2023-01-11T20:59:22.101Z,100370.81
2023-01-11T21:01:51.817Z,100363.75
2023-01-11T21:04:20.052Z,100326.97
2023-01-11T21:06:49.480Z,100345.19
2023-01-11T21:09:20.013Z,100347.88
2023-01-11T21:14:36.949Z,100330.16
2023-01-11T21:17:05.335Z,100356.03
2023-01-11T21:19:47.883Z,100342.06
2023-01-11T21:22:16.076Z,100354.91
2023-01-11T21:24:48.623Z,100360.44
2023-01-11T21:27:19.394Z,100343.50
2023-01-11T21:29:56.828Z,100309.94
2023-01-11T21:32:26.501Z,100345.91
2023-01-11T21:34:54.665Z,100311.50
2023-01-11T21:37:28.625Z,100333.13
2023-01-11T21:40:20.110Z,100270.59
2023-01-11T21:43:16.385Z,100268.22
2023-01-11T21:45:46.010Z,100268.81
2023-01-11T21:48:21.818Z,100240.44
2023-01-11T21:50:52.984Z,100258.81
2023-01-11T21:53:25.345Z,100213.91
2023-01-11T21:55:55.190Z,100222.63
2023-01-11T21:58:32.115Z,100193.13
2023-01-11T22:01:00.455Z,100233.81
2023-01-11T22:03:28.869Z,100258.81
2023-01-11T22:06:01.799Z,100193.78
2023-01-11T22:08:30.020Z,100204.19
2023-01-11T22:11:00.989Z,100206.41
2023-01-11T22:13:30.292Z,100228.56
2023-01-11T22:16:01.755Z,100259.91
2023-01-11T22:18:30.738Z,100208.13
2023-01-11T22:21:04.891Z,100205.50
2023-01-11T22:23:33.022Z,100167.88
2023-01-11T22:26:05.835Z,100198.28
2023-01-11T22:28:56.734Z,100198.59
2023-01-11T22:31:27.561Z,100189.03
2023-01-11T22:33:56.287Z,100188.72
2023-01-11T22:36:25.949Z,100220.06
2023-01-11T22:38:54.406Z,100205.88
2023-01-11T22:41:25.013Z,100165.84
2023-01-11T22:43:54.277Z,100210.16
2023-01-11T22:46:24.155Z,100177.19
2023-01-11T22:48:53.276Z,100203.50
2023-01-11T22:51:22.661Z,100160.25
2023-01-11T22:53:52.069Z,100144.03
2023-01-11T22:56:22.267Z,100159.81
2023-01-11T22:58:52.553Z,100181.66
2023-01-11T23:01:22.371Z,100183.50
2023-01-11T23:03:51.050Z,100191.88
2023-01-11T23:06:21.219Z,100189.03
2023-01-11T23:08:59.770Z,100198.41
2023-01-11T23:14:48.001Z,100180.94
2023-01-11T23:17:18.890Z,100162.16
2023-01-11T23:19:47.225Z,100179.63
2023-01-11T23:22:16.937Z,100167.59
2023-01-11T23:24:45.050Z,100166.69
2023-01-11T23:27:13.540Z,100184.63
2023-01-11T23:29:48.082Z,100193.75
2023-01-11T23:32:16.099Z,100164.91
2023-01-11T23:34:47.294Z,100171.91
2023-01-11T23:37:16.927Z,100184.53
2023-01-11T23:39:44.909Z,100162.44
2023-01-11T23:42:30.222Z,100141.28
2023-01-11T23:44:59.905Z,100182.19
2023-01-11T23:47:30.040Z,100188.44
2023-01-11T23:50:01.618Z,100163.59
2023-01-11T23:52:31.406Z,100179.41
2023-01-11T23:54:59.940Z,100166.50
2023-01-11T23:57:31.641Z,100164.19
